createdAt,value
2022-11-25T00:00:31.890Z,1.713257
2022-11-25T00:01:41.682Z,1.733398
2022-11-25T00:02:49.363Z,1.713257
2022-11-25T00:03:58.961Z,1.713257
2022-11-25T00:05:07.642Z,1.733398
2022-11-25T00:06:15.317Z,1.713257
2022-11-25T00:07:25.075Z,1.713257
2022-11-25T00:08:34.685Z,1.763611
2022-11-25T00:09:43.500Z,1.773682
2022-11-25T00:10:53.220Z,1.763611
2022-11-25T00:12:01.896Z,1.783752
2022-11-25T00:13:10.580Z,1.783752
2022-11-25T00:14:19.252Z,1.813965
2022-11-25T00:15:29.051Z,1.854248
2022-11-25T00:16:41.498Z,1.88446
2022-11-25T00:17:49.422Z,1.924744
2022-11-25T00:18:59.112Z,1.924744
2022-11-25T00:20:07.822Z,1.944885
2022-11-25T00:21:17.528Z,1.944885
2022-11-25T00:22:27.213Z,1.954956
2022-11-25T00:23:36.857Z,1.985168
2022-11-25T00:24:45.552Z,1.954956
2022-11-25T00:25:55.266Z,1.954956
2022-11-25T00:27:03.961Z,1.985168
2022-11-25T00:28:12.680Z,1.985168
2022-11-25T00:29:22.389Z,1.985168
2022-11-25T00:30:30.040Z,2.015381
2022-11-25T00:31:39.815Z,1.985168
2022-11-25T00:32:48.587Z,1.965027
2022-11-25T00:33:57.247Z,1.954956
2022-11-25T00:35:06.933Z,1.954956
2022-11-25T00:36:14.613Z,1.944885
2022-11-25T00:37:24.322Z,1.894531
2022-11-25T00:38:31.988Z,1.87439
2022-11-25T00:39:41.629Z,1.854248
2022-11-25T00:40:51.300Z,1.844177
2022-11-25T00:42:00.974Z,1.773682
2022-11-25T00:43:10.722Z,1.773682
2022-11-25T00:44:19.427Z,1.783752
2022-11-25T00:45:29.160Z,1.803894
2022-11-25T00:46:38.795Z,1.803894
2022-11-25T00:47:46.454Z,1.803894
2022-11-25T00:48:55.138Z,1.803894
2022-11-25T00:50:04.933Z,1.783752
2022-11-25T00:51:12.536Z,1.773682
2022-11-25T00:52:22.228Z,1.763611
2022-11-25T00:53:31.881Z,1.713257
2022-11-25T00:54:40.586Z,1.672974
2022-11-25T00:57:15.853Z,1.62262
2022-11-25T00:58:25.532Z,1.662903
2022-11-25T00:59:35.232Z,1.62262
2022-11-25T01:00:43.942Z,1.662903
2022-11-25T01:01:53.639Z,1.63269
2022-11-25T01:03:02.252Z,1.662903
2022-11-25T01:04:10.939Z,1.662903
2022-11-25T01:05:20.620Z,1.63269
2022-11-25T01:06:29.319Z,1.602478
2022-11-25T01:07:39.029Z,1.592407
2022-11-25T01:08:47.714Z,1.562195
2022-11-25T01:09:55.557Z,1.552124
2022-11-25T01:11:05.221Z,1.552124
2022-11-25T01:12:13.897Z,1.552124
2022-11-25T01:13:22.553Z,1.552124
2022-11-25T01:14:32.257Z,1.531982
2022-11-25T01:15:40.908Z,1.481628
2022-11-25T01:16:50.645Z,1.491699
2022-11-25T01:17:59.240Z,1.441345
2022-11-25T01:19:06.890Z,1.441345
2022-11-25T01:20:16.570Z,1.441345
2022-11-25T01:21:24.238Z,1.411133
2022-11-25T01:22:32.891Z,1.401062
2022-11-25T01:23:42.631Z,1.37085
2022-11-25T01:24:51.289Z,1.350708
2022-11-25T01:26:01.081Z,1.350708
2022-11-25T01:27:10.729Z,1.350708
2022-11-25T01:28:18.383Z,1.350708
2022-11-25T01:29:28.085Z,1.350708
2022-11-25T01:30:39.829Z,1.37085
2022-11-25T01:31:45.478Z,1.38092
2022-11-25T01:32:55.103Z,1.350708
2022-11-25T01:34:02.758Z,1.340637
2022-11-25T01:35:12.477Z,1.350708
2022-11-25T01:36:21.137Z,1.350708
2022-11-25T01:37:29.823Z,1.37085
2022-11-25T01:38:39.510Z,1.37085
2022-11-25T01:39:47.182Z,1.38092
2022-11-25T01:40:55.938Z,1.401062
2022-11-25T01:42:05.636Z,1.401062
2022-11-25T01:43:15.302Z,1.421204
2022-11-25T01:44:24.954Z,1.451416
2022-11-25T01:45:33.711Z,1.481628
2022-11-25T01:46:41.360Z,1.50177
2022-11-25T01:47:50.110Z,1.491699
2022-11-25T01:48:58.640Z,1.50177
2022-11-25T01:50:07.323Z,1.50177
2022-11-25T01:51:16.962Z,1.552124
2022-11-25T01:52:25.665Z,1.552124
2022-11-25T01:53:35.304Z,1.552124
2022-11-25T01:54:44.060Z,1.531982
2022-11-25T01:55:54.725Z,1.552124
2022-11-25T01:57:04.392Z,1.521912
2022-11-25T01:58:12.118Z,1.50177
2022-11-25T01:59:21.734Z,1.481628
2022-11-25T02:00:31.498Z,1.451416
2022-11-25T02:01:39.253Z,1.401062
2022-11-25T02:02:48.917Z,1.421204
2022-11-25T02:03:57.597Z,1.401062
2022-11-25T02:05:06.271Z,1.411133
2022-11-25T02:06:15.946Z,1.411133
2022-11-25T02:07:24.682Z,1.421204
2022-11-25T02:08:34.305Z,1.421204
2022-11-25T02:09:44.039Z,1.421204
2022-11-25T02:10:52.720Z,1.421204
2022-11-25T02:12:02.360Z,1.401062
2022-11-25T02:13:11.013Z,1.401062
2022-11-25T02:14:17.724Z,1.401062
2022-11-25T02:15:27.395Z,1.38092
2022-11-25T02:16:35.112Z,1.340637
2022-11-25T02:17:43.717Z,1.320496
2022-11-25T02:18:54.375Z,1.320496
2022-11-25T02:20:03.048Z,1.310425
2022-11-25T02:21:12.724Z,1.310425
2022-11-25T02:22:21.413Z,1.280212
2022-11-25T02:23:30.064Z,1.280212
2022-11-25T02:24:39.743Z,1.280212
2022-11-25T02:25:47.391Z,1.280212
2022-11-25T02:26:57.109Z,1.280212
2022-11-25T02:28:06.886Z,1.300354
2022-11-25T02:29:14.539Z,1.310425
2022-11-25T02:30:24.242Z,1.310425
2022-11-25T02:31:33.959Z,1.280212
2022-11-25T02:32:41.565Z,1.260071
2022-11-25T02:33:51.238Z,1.260071
2022-11-25T02:34:58.916Z,1.260071
2022-11-25T02:36:08.602Z,1.260071
2022-11-25T02:37:17.269Z,1.260071
2022-11-25T02:38:25.982Z,1.239929
2022-11-25T02:39:35.652Z,1.219788
2022-11-25T02:40:44.305Z,1.219788
2022-11-25T02:41:53.969Z,1.219788
2022-11-25T02:43:02.629Z,1.189575
2022-11-25T02:44:10.340Z,1.199646
2022-11-25T02:45:19.004Z,1.189575
2022-11-25T02:46:26.781Z,1.189575
2022-11-25T02:47:35.375Z,1.169434
2022-11-25T02:49:07.724Z,1.189575
2022-11-25T02:49:54.648Z,1.219788
2022-11-25T02:51:04.317Z,1.199646
2022-11-25T02:52:13.000Z,1.219788
2022-11-25T02:53:21.691Z,1.229858
2022-11-25T02:54:31.366Z,1.229858
2022-11-25T02:55:39.063Z,1.260071
2022-11-25T02:56:47.713Z,1.300354
2022-11-25T02:57:57.450Z,1.300354
2022-11-25T02:59:06.134Z,1.320496
2022-11-25T03:00:15.878Z,1.320496
2022-11-25T03:01:25.556Z,1.340637
2022-11-25T03:02:34.266Z,1.340637
2022-11-25T03:03:43.870Z,1.340637
2022-11-25T03:04:52.538Z,1.37085
2022-11-25T03:06:01.223Z,1.37085
2022-11-25T03:07:10.973Z,1.350708
2022-11-25T03:08:19.585Z,1.37085
2022-11-25T03:09:29.272Z,1.38092
2022-11-25T03:10:36.916Z,1.350708
2022-11-25T03:11:45.596Z,1.37085
2022-11-25T03:12:55.290Z,1.350708
2022-11-25T03:14:03.972Z,1.37085
2022-11-25T03:15:12.652Z,1.38092
2022-11-25T03:16:22.394Z,1.350708
2022-11-25T03:17:31.005Z,1.350708
2022-11-25T03:18:40.828Z,1.37085
2022-11-25T03:19:50.489Z,1.340637
2022-11-25T03:20:58.154Z,1.350708
2022-11-25T03:22:07.828Z,1.310425
2022-11-25T03:23:15.505Z,1.320496
2022-11-25T03:24:25.186Z,1.310425
2022-11-25T03:25:34.862Z,1.310425
2022-11-25T03:26:43.519Z,1.320496
2022-11-25T03:27:53.187Z,1.320496
2022-11-25T03:29:01.852Z,1.320496
2022-11-25T03:30:10.547Z,1.340637
2022-11-25T03:31:20.304Z,1.340637
2022-11-25T03:32:28.954Z,1.350708
2022-11-25T03:33:37.655Z,1.38092
2022-11-25T03:34:47.351Z,1.37085
2022-11-25T03:35:57.034Z,1.350708
2022-11-25T03:37:06.746Z,1.38092
2022-11-25T03:38:15.430Z,1.37085
2022-11-25T03:39:23.039Z,1.401062
2022-11-25T03:40:32.713Z,1.350708
2022-11-25T03:41:40.445Z,1.37085
2022-11-25T03:42:49.083Z,1.37085
2022-11-25T03:43:58.767Z,1.37085
2022-11-25T03:45:07.430Z,1.38092
2022-11-25T03:46:17.190Z,1.38092
2022-11-25T03:47:26.860Z,1.37085
2022-11-25T03:48:36.552Z,1.38092
2022-11-25T03:49:47.208Z,1.37085
2022-11-25T03:50:55.903Z,1.38092
2022-11-25T03:52:04.527Z,1.340637
2022-11-25T03:53:14.203Z,1.350708
2022-11-25T03:54:22.915Z,1.350708
2022-11-25T03:55:32.740Z,1.350708
2022-11-25T03:56:41.435Z,1.37085
2022-11-25T03:57:50.153Z,1.37085
2022-11-25T03:58:59.863Z,1.37085
2022-11-25T04:00:07.529Z,1.340637
2022-11-25T04:01:16.251Z,1.350708
2022-11-25T04:02:25.965Z,1.350708
2022-11-25T04:03:35.569Z,1.350708
2022-11-25T04:04:45.238Z,1.38092
2022-11-25T04:05:53.909Z,1.38092
2022-11-25T04:07:03.621Z,1.37085
2022-11-25T04:08:13.289Z,1.350708
2022-11-25T04:09:21.962Z,1.37085
2022-11-25T04:10:30.685Z,1.38092
2022-11-25T04:11:40.365Z,1.38092
2022-11-25T04:12:49.031Z,1.37085
2022-11-25T04:13:58.821Z,1.401062
2022-11-25T04:15:08.511Z,1.411133
2022-11-25T04:16:18.255Z,1.411133
2022-11-25T04:17:27.907Z,1.421204
2022-11-25T04:18:36.635Z,1.421204
2022-11-25T04:19:45.328Z,1.421204
2022-11-25T04:20:55.040Z,1.441345
2022-11-25T04:22:02.853Z,1.441345
2022-11-25T04:23:12.560Z,1.441345
2022-11-25T04:24:22.199Z,1.481628
2022-11-25T04:25:29.849Z,1.481628
2022-11-25T04:26:39.597Z,1.491699
2022-11-25T04:27:48.296Z,1.491699
2022-11-25T04:28:57.988Z,1.491699
2022-11-25T04:30:07.678Z,1.491699
2022-11-25T04:31:15.397Z,1.481628
2022-11-25T04:32:25.026Z,1.481628
2022-11-25T04:33:33.732Z,1.421204
2022-11-25T04:34:43.407Z,1.411133
2022-11-25T04:35:52.071Z,1.401062
2022-11-25T04:36:59.761Z,1.38092
2022-11-25T04:38:09.429Z,1.37085
2022-11-25T04:39:17.178Z,1.350708
2022-11-25T04:40:25.805Z,1.340637
2022-11-25T04:41:35.530Z,1.310425
2022-11-25T04:42:44.205Z,1.320496
2022-11-25T04:43:53.857Z,1.38092
2022-11-25T04:46:14.476Z,1.37085
2022-11-25T04:47:23.097Z,1.37085
2022-11-25T04:48:31.769Z,1.411133
2022-11-25T04:49:41.451Z,1.411133
2022-11-25T04:50:51.171Z,1.441345
2022-11-25T04:51:58.829Z,1.451416
2022-11-25T04:53:08.512Z,1.441345
2022-11-25T04:54:17.617Z,1.441345
2022-11-25T04:55:26.892Z,1.451416
2022-11-25T04:56:36.562Z,1.451416
2022-11-25T04:57:45.244Z,1.481628
2022-11-25T04:58:53.896Z,1.491699
2022-11-25T05:00:03.568Z,1.50177
2022-11-25T05:01:13.353Z,1.491699
2022-11-25T05:02:23.041Z,1.521912
2022-11-25T05:03:31.658Z,1.531982
2022-11-25T05:04:41.309Z,1.531982
2022-11-25T05:05:50.995Z,1.552124
2022-11-25T05:06:59.669Z,1.562195
2022-11-25T05:08:08.350Z,1.562195
2022-11-25T05:09:18.119Z,1.582336
2022-11-25T05:10:25.830Z,1.582336
2022-11-25T05:11:35.568Z,1.562195
2022-11-25T05:12:45.219Z,1.582336
2022-11-25T05:13:54.036Z,1.582336
2022-11-25T05:15:03.723Z,1.582336
2022-11-25T05:16:11.446Z,1.582336
2022-11-25T05:17:20.107Z,1.552124
2022-11-25T05:18:28.786Z,1.552124
2022-11-25T05:19:37.474Z,1.531982
2022-11-25T05:20:47.177Z,1.531982
2022-11-25T05:21:56.853Z,1.552124
2022-11-25T05:23:04.519Z,1.582336
2022-11-25T05:24:14.187Z,1.562195
2022-11-25T05:25:22.916Z,1.552124
2022-11-25T05:26:31.581Z,1.562195
2022-11-25T05:27:41.318Z,1.562195
2022-11-25T05:28:50.998Z,1.552124
2022-11-25T05:30:00.843Z,1.562195
2022-11-25T05:31:10.729Z,1.552124
2022-11-25T05:32:19.332Z,1.552124
2022-11-25T05:33:28.993Z,1.582336
2022-11-25T05:34:37.995Z,1.592407
2022-11-25T05:35:46.363Z,1.562195
2022-11-25T05:36:56.093Z,1.562195
2022-11-25T05:38:04.860Z,1.562195
2022-11-25T05:39:14.602Z,1.531982
2022-11-25T05:40:24.350Z,1.531982
2022-11-25T05:41:32.017Z,1.552124
2022-11-25T05:42:41.762Z,1.521912
2022-11-25T05:43:49.596Z,1.531982
2022-11-25T05:44:59.238Z,1.521912
2022-11-25T05:46:08.964Z,1.531982
2022-11-25T05:47:17.600Z,1.521912
2022-11-25T05:48:27.425Z,1.521912
2022-11-25T05:49:36.128Z,1.50177
2022-11-25T05:50:43.795Z,1.491699
2022-11-25T05:51:52.568Z,1.50177
2022-11-25T05:53:01.975Z,1.521912
2022-11-25T05:54:10.843Z,1.521912
2022-11-25T05:55:20.526Z,1.50177
2022-11-25T05:56:27.172Z,1.521912
2022-11-25T05:57:36.888Z,1.521912
2022-11-25T05:58:46.623Z,1.50177
2022-11-25T05:59:54.338Z,1.50177
2022-11-25T06:01:04.013Z,1.50177
2022-11-25T06:02:11.717Z,1.491699
2022-11-25T06:03:21.466Z,1.481628
2022-11-25T06:04:31.068Z,1.50177
2022-11-25T06:05:40.767Z,1.521912
2022-11-25T06:06:50.456Z,1.531982
2022-11-25T06:07:59.166Z,1.521912
2022-11-25T06:09:06.804Z,1.521912
2022-11-25T06:10:15.490Z,1.491699
2022-11-25T06:11:24.170Z,1.521912
2022-11-25T06:12:32.911Z,1.552124
2022-11-25T06:13:42.621Z,1.552124
2022-11-25T06:14:52.312Z,1.531982
2022-11-25T06:16:07.506Z,1.531982
2022-11-25T06:17:11.663Z,1.481628
2022-11-25T06:18:19.329Z,1.481628
2022-11-25T06:19:27.999Z,1.451416
2022-11-25T06:20:37.649Z,1.421204
2022-11-25T06:21:46.306Z,1.411133
2022-11-25T06:22:56.017Z,1.37085
2022-11-25T06:24:04.691Z,1.350708
2022-11-25T06:25:14.347Z,1.37085
2022-11-25T06:26:23.070Z,1.37085
2022-11-25T06:27:44.183Z,1.350708
2022-11-25T06:28:42.430Z,1.37085
2022-11-25T06:29:52.171Z,1.38092
2022-11-25T06:31:00.914Z,1.37085
2022-11-25T06:32:10.649Z,1.401062
2022-11-25T06:33:19.325Z,1.411133
2022-11-25T06:34:29.033Z,1.441345
2022-11-25T06:35:36.730Z,1.411133
2022-11-25T06:36:46.382Z,1.411133
2022-11-25T06:37:55.154Z,1.411133
2022-11-25T06:39:02.848Z,1.421204
2022-11-25T06:40:12.580Z,1.411133
2022-11-25T06:41:21.313Z,1.451416
2022-11-25T06:42:30.098Z,1.481628
2022-11-25T06:43:39.764Z,1.491699
2022-11-25T06:44:47.445Z,1.521912
2022-11-25T06:45:57.190Z,1.552124
2022-11-25T06:47:05.896Z,1.552124
2022-11-25T06:48:13.600Z,1.552124
2022-11-25T06:49:23.264Z,1.552124
2022-11-25T06:50:31.933Z,1.582336
2022-11-25T06:51:41.690Z,1.592407
2022-11-25T06:52:51.429Z,1.63269
2022-11-25T06:53:59.066Z,1.672974
2022-11-25T06:55:08.832Z,1.733398
2022-11-25T06:56:18.529Z,1.783752
2022-11-25T06:57:26.220Z,1.87439
2022-11-25T06:58:36.310Z,1.965027
2022-11-25T06:59:43.611Z,2.075806
2022-11-25T07:00:53.270Z,2.176514
2022-11-25T07:02:03.142Z,2.277222
2022-11-25T07:03:10.755Z,2.357788
2022-11-25T07:04:20.458Z,2.458496
2022-11-25T07:05:30.118Z,2.539062
2022-11-25T07:06:38.801Z,2.680054
2022-11-25T07:07:48.535Z,2.740479
2022-11-25T07:08:57.215Z,2.831116
2022-11-25T07:10:05.896Z,2.861328
2022-11-25T07:11:14.557Z,2.891541
2022-11-25T07:12:24.224Z,2.921753
2022-11-25T07:13:32.926Z,2.871399
2022-11-25T07:14:41.589Z,2.861328
2022-11-25T07:15:51.320Z,2.861328
2022-11-25T07:17:01.163Z,2.851257
2022-11-25T07:18:10.790Z,2.871399
2022-11-25T07:19:19.446Z,2.861328
2022-11-25T07:20:29.177Z,2.871399
2022-11-25T07:21:38.811Z,2.901611
2022-11-25T07:22:48.502Z,3.002319
2022-11-25T07:23:57.192Z,3.032532
2022-11-25T07:25:05.866Z,3.082886
2022-11-25T07:26:15.556Z,3.103027
2022-11-25T07:27:23.211Z,3.13324
2022-11-25T07:28:31.890Z,3.163452
2022-11-25T07:29:58.159Z,3.193665
2022-11-25T07:31:22.614Z,3.193665
2022-11-25T07:32:07.262Z,3.233948
2022-11-25T07:33:12.611Z,3.233948
2022-11-25T07:34:20.268Z,3.26416
2022-11-25T07:35:29.954Z,3.294373
2022-11-25T07:36:37.645Z,3.324585
2022-11-25T07:37:46.310Z,3.344727
2022-11-25T07:38:55.983Z,3.324585
2022-11-25T07:40:05.666Z,3.344727
2022-11-25T07:41:15.352Z,3.374939
2022-11-25T07:42:24.054Z,3.374939
2022-11-25T07:43:31.776Z,3.395081
2022-11-25T07:44:41.483Z,3.395081
2022-11-25T07:45:50.308Z,3.395081
2022-11-25T07:46:58.889Z,3.405151
2022-11-25T07:48:08.541Z,3.445435
2022-11-25T07:49:17.236Z,3.445435
2022-11-25T07:50:27.024Z,3.445435
2022-11-25T07:51:35.659Z,3.435364
2022-11-25T07:52:43.400Z,3.445435
2022-11-25T07:53:53.062Z,3.445435
2022-11-25T07:55:01.922Z,3.465576
2022-11-25T07:56:11.689Z,3.415222
2022-11-25T07:57:21.398Z,3.395081
2022-11-25T07:58:30.118Z,3.324585
2022-11-25T07:59:40.784Z,3.294373
2022-11-25T08:00:49.497Z,3.26416
2022-11-25T08:01:58.271Z,3.254089
2022-11-25T08:03:08.017Z,3.233948
2022-11-25T08:04:20.365Z,3.223877
2022-11-25T08:05:27.222Z,3.213806
2022-11-25T08:06:36.930Z,3.213806
2022-11-25T08:07:45.682Z,3.193665
2022-11-25T08:08:55.346Z,3.213806
2022-11-25T08:10:05.013Z,3.193665
2022-11-25T08:11:12.714Z,3.183594
2022-11-25T08:12:22.461Z,3.163452
2022-11-25T08:13:32.167Z,3.183594
2022-11-25T08:14:40.833Z,3.163452
2022-11-25T08:15:50.585Z,3.193665
2022-11-25T08:17:00.253Z,3.213806
2022-11-25T08:18:09.971Z,3.223877
2022-11-25T08:19:19.696Z,3.213806
2022-11-25T08:20:30.359Z,3.213806
2022-11-25T08:21:40.106Z,3.223877
2022-11-25T08:22:48.809Z,3.26416
2022-11-25T08:23:58.547Z,3.254089
2022-11-25T08:25:08.204Z,3.294373
2022-11-25T08:26:16.894Z,3.324585
2022-11-25T08:27:26.573Z,3.374939
2022-11-25T08:28:35.246Z,3.374939
2022-11-25T08:29:44.936Z,3.415222
2022-11-25T08:30:53.629Z,3.405151
2022-11-25T08:32:01.268Z,3.465576
2022-11-25T08:33:11.936Z,3.465576
2022-11-25T08:34:19.583Z,3.505859
2022-11-25T08:35:28.395Z,3.526001
2022-11-25T08:36:38.058Z,3.546143
2022-11-25T08:37:48.696Z,3.546143
2022-11-25T08:38:58.463Z,3.586426
2022-11-25T08:40:09.201Z,3.616638
2022-11-25T08:41:18.889Z,3.646851
2022-11-25T08:42:28.566Z,3.656921
2022-11-25T08:43:36.212Z,3.677063
2022-11-25T08:44:45.896Z,3.727417
2022-11-25T08:45:55.569Z,3.737488
2022-11-25T08:47:04.293Z,3.737488
2022-11-25T08:48:13.961Z,3.757629
2022-11-25T08:49:23.664Z,3.737488
2022-11-25T08:50:33.395Z,3.737488
2022-11-25T08:51:43.113Z,3.7677
2022-11-25T08:52:51.807Z,3.828125
2022-11-25T08:54:00.545Z,3.828125
2022-11-25T08:55:10.229Z,3.878479
2022-11-25T08:56:21.615Z,3.858337
2022-11-25T08:57:28.572Z,3.908691
2022-11-25T08:58:37.382Z,3.908691
2022-11-25T08:59:46.083Z,3.948975
2022-11-25T09:00:55.770Z,3.938904
2022-11-25T09:02:03.592Z,4.009399
2022-11-25T09:03:12.279Z,4.01947
2022-11-25T09:04:21.904Z,4.049683
2022-11-25T09:05:31.717Z,4.079895
2022-11-25T09:06:41.414Z,4.120178
2022-11-25T09:07:50.195Z,4.130249
2022-11-25T09:08:57.850Z,4.190674
2022-11-25T09:10:07.578Z,4.200745
2022-11-25T09:11:15.336Z,4.241028
2022-11-25T09:12:24.942Z,4.281311
2022-11-25T09:13:34.710Z,4.311523
2022-11-25T09:14:43.340Z,4.341736
2022-11-25T09:15:53.173Z,4.371948
2022-11-25T09:17:01.833Z,4.371948
2022-11-25T09:18:10.506Z,4.402161
2022-11-25T09:19:20.238Z,4.422302
2022-11-25T09:20:28.017Z,4.442444
2022-11-25T09:21:37.726Z,4.422302
2022-11-25T09:22:47.442Z,4.442444
2022-11-25T09:23:55.145Z,4.452515
2022-11-25T09:25:04.826Z,4.52301
2022-11-25T09:26:13.579Z,4.502869
2022-11-25T09:27:21.272Z,4.563293
2022-11-25T09:28:30.986Z,4.603577
2022-11-25T09:29:39.982Z,4.674072
2022-11-25T09:30:49.527Z,4.684143
2022-11-25T09:31:59.244Z,4.744568
2022-11-25T09:33:09.001Z,4.784851
2022-11-25T09:34:18.693Z,4.835205
2022-11-25T09:35:28.363Z,4.855347
2022-11-25T09:36:36.125Z,4.885559
2022-11-25T09:37:45.828Z,4.935913
2022-11-25T09:38:54.524Z,4.996338
2022-11-25T09:40:04.216Z,5.016479
2022-11-25T09:41:13.926Z,4.925842
2022-11-25T09:42:22.622Z,4.915771
2022-11-25T09:43:32.300Z,4.925842
2022-11-25T09:44:41.040Z,4.935913
2022-11-25T09:45:50.733Z,4.986267
2022-11-25T09:47:00.493Z,5.076904
2022-11-25T09:48:09.115Z,5.117188
2022-11-25T09:49:17.770Z,5.177612
2022-11-25T09:50:27.474Z,5.248108
2022-11-25T09:51:36.188Z,5.318604
2022-11-25T09:52:45.948Z,5.298462
2022-11-25T09:53:54.648Z,5.328674
2022-11-25T09:55:03.339Z,5.409241
2022-11-25T09:56:13.100Z,5.439453
2022-11-25T09:57:20.725Z,5.469666
2022-11-25T09:58:29.403Z,5.53009
2022-11-25T09:59:39.265Z,5.661011
2022-11-25T10:00:47.814Z,5.822144
2022-11-25T10:01:57.532Z,6.053772
2022-11-25T10:03:06.328Z,6.224976
2022-11-25T10:04:14.886Z,6.597595
2022-11-25T10:05:24.640Z,6.627808
2022-11-25T10:06:34.480Z,6.889648
2022-11-25T10:07:44.339Z,7.171631
2022-11-25T10:08:54.010Z,7.332764
2022-11-25T10:10:01.761Z,7.584534
2022-11-25T10:11:11.452Z,7.685242
2022-11-25T10:12:20.188Z,7.816162
2022-11-25T10:13:28.890Z,7.755737
2022-11-25T10:14:38.624Z,7.78595
2022-11-25T10:15:47.342Z,7.78595
2022-11-25T10:16:56.007Z,7.876587
2022-11-25T10:18:05.726Z,7.906799
2022-11-25T10:19:14.453Z,7.926941
2022-11-25T10:20:24.136Z,7.826233
2022-11-25T10:21:32.813Z,7.866516
2022-11-25T10:22:40.559Z,7.695312
2022-11-25T10:23:50.323Z,7.614746
2022-11-25T10:24:58.004Z,7.695312
2022-11-25T10:26:07.751Z,7.725525
2022-11-25T10:27:16.469Z,7.796021
2022-11-25T10:28:26.176Z,7.906799
2022-11-25T10:29:35.854Z,7.947083
2022-11-25T10:30:44.571Z,7.967224
2022-11-25T10:31:54.335Z,8.42041
2022-11-25T10:33:02.963Z,8.823242
2022-11-25T10:34:11.663Z,9.155579
2022-11-25T10:35:21.412Z,9.367065
2022-11-25T10:36:31.140Z,9.578552
2022-11-25T10:37:40.796Z,9.830322
2022-11-25T10:38:50.521Z,9.920959
2022-11-25T10:39:59.192Z,9.840393
2022-11-25T10:41:08.882Z,9.951172
2022-11-25T10:42:17.581Z,10.122375
2022-11-25T10:43:30.278Z,10.072021
2022-11-25T10:44:35.276Z,10.021667
2022-11-25T10:45:43.621Z,10.152588
2022-11-25T10:47:14.502Z,10.30365
2022-11-25T10:48:04.004Z,10.535278
2022-11-25T10:49:12.759Z,10.68634
2022-11-25T10:50:22.444Z,10.867615
2022-11-25T10:51:31.151Z,11.119385
2022-11-25T10:52:39.862Z,10.756836
2022-11-25T10:53:48.580Z,10.30365
2022-11-25T10:54:56.254Z,10.05188
2022-11-25T10:56:04.962Z,10.354004
2022-11-25T10:57:14.645Z,10.80719
2022-11-25T10:58:23.323Z,11.119385
2022-11-25T10:59:33.004Z,11.371155
2022-11-25T11:00:41.723Z,11.542358
2022-11-25T11:01:50.522Z,11.602783
2022-11-25T11:03:00.247Z,11.471863
2022-11-25T11:04:09.046Z,11.330872
2022-11-25T11:05:18.867Z,11.109314
2022-11-25T11:06:28.524Z,10.988464
2022-11-25T11:07:37.327Z,11.048889
2022-11-25T11:08:46.892Z,11.17981
2022-11-25T11:09:56.624Z,11.300659
2022-11-25T11:11:06.317Z,11.502075
2022-11-25T11:12:16.009Z,11.69342
2022-11-25T11:13:25.700Z,11.632996
2022-11-25T11:14:33.479Z,11.522217
2022-11-25T11:15:43.161Z,11.572571
2022-11-25T11:16:51.804Z,11.512146
2022-11-25T11:18:01.506Z,11.330872
2022-11-25T11:19:10.209Z,11.451721
2022-11-25T11:20:18.912Z,11.502075
2022-11-25T11:21:28.649Z,11.300659
2022-11-25T11:22:37.355Z,11.018677
2022-11-25T11:23:46.033Z,10.706482
2022-11-25T11:24:55.728Z,10.55542
2022-11-25T11:26:03.420Z,10.4245
2022-11-25T11:27:13.096Z,10.152588
2022-11-25T11:28:22.799Z,9.860535
2022-11-25T11:29:31.492Z,9.739685
2022-11-25T11:30:41.179Z,9.638977
2022-11-25T11:31:48.916Z,9.457703
2022-11-25T11:32:58.556Z,9.397278
2022-11-25T11:34:08.247Z,9.497986
2022-11-25T11:35:16.951Z,9.608765
2022-11-25T11:36:26.648Z,9.608765
2022-11-25T11:37:35.331Z,9.618835
2022-11-25T11:38:45.045Z,9.719543
2022-11-25T11:39:54.918Z,9.729614
2022-11-25T11:41:02.589Z,9.80011
2022-11-25T11:42:11.262Z,9.870605
2022-11-25T11:43:21.041Z,9.951172
2022-11-25T11:44:28.703Z,9.951172
2022-11-25T11:45:38.439Z,10.041809
2022-11-25T11:46:47.219Z,10.132446
2022-11-25T11:47:55.807Z,10.152588
2022-11-25T11:49:05.580Z,10.192871
2022-11-25T11:50:13.228Z,10.102234
2022-11-25T11:51:21.895Z,10.162659
2022-11-25T11:52:31.613Z,10.192871
2022-11-25T11:53:40.342Z,10.223083
2022-11-25T11:54:50.037Z,10.233154
2022-11-25T11:56:19.279Z,10.202942
2022-11-25T11:57:09.452Z,10.253296
2022-11-25T11:58:19.161Z,10.223083
2022-11-25T11:59:26.821Z,10.233154
2022-11-25T12:00:35.496Z,10.414429
2022-11-25T12:01:45.233Z,10.746765
2022-11-25T12:02:53.893Z,10.837402
2022-11-25T12:04:03.528Z,10.887756
2022-11-25T12:05:12.187Z,11.018677
2022-11-25T12:06:20.845Z,11.18988
2022-11-25T12:07:30.578Z,11.401367
2022-11-25T12:08:38.336Z,11.522217
2022-11-25T12:09:47.020Z,11.552429
2022-11-25T12:10:56.704Z,11.753845
2022-11-25T12:12:05.370Z,11.874695
2022-11-25T12:13:15.125Z,12.096252
2022-11-25T12:14:23.805Z,12.237244
2022-11-25T12:15:31.471Z,12.428589
2022-11-25T12:16:40.294Z,12.619934
2022-11-25T12:17:48.866Z,12.791138
2022-11-25T12:18:58.518Z,12.932129
2022-11-25T12:20:08.235Z,12.932129
2022-11-25T12:21:16.937Z,12.911987
2022-11-25T12:22:26.604Z,12.9422
2022-11-25T12:23:36.303Z,13.113403
2022-11-25T12:24:46.066Z,13.083191
2022-11-25T12:25:55.823Z,13.113403
2022-11-25T12:27:05.652Z,13.284607
2022-11-25T12:28:15.485Z,13.415527
2022-11-25T12:29:25.151Z,13.516235
2022-11-25T12:30:34.863Z,13.647156
2022-11-25T12:31:44.728Z,13.768005
2022-11-25T12:32:52.345Z,13.747864
2022-11-25T12:34:02.051Z,13.858643
2022-11-25T12:35:10.730Z,13.919067
2022-11-25T12:36:19.402Z,13.94928
2022-11-25T12:37:29.125Z,13.82843
2022-11-25T12:38:36.783Z,13.82843
2022-11-25T12:39:46.442Z,13.788147
2022-11-25T12:40:56.115Z,13.888855
2022-11-25T12:42:04.801Z,13.969421
2022-11-25T12:43:14.510Z,14.0802
2022-11-25T12:44:23.195Z,14.261475
2022-11-25T12:45:30.922Z,14.261475
2022-11-25T12:46:40.556Z,14.352112
2022-11-25T12:47:48.220Z,14.472961
2022-11-25T12:48:57.899Z,14.352112
2022-11-25T12:50:07.565Z,14.251404
2022-11-25T12:51:17.242Z,13.919067
2022-11-25T12:52:26.906Z,13.788147
2022-11-25T12:53:34.593Z,13.858643
2022-11-25T12:54:43.272Z,14.070129
2022-11-25T12:55:52.961Z,14.150696
2022-11-25T12:57:01.622Z,14.251404
2022-11-25T12:58:10.496Z,14.352112
2022-11-25T12:59:20.045Z,14.352112
2022-11-25T13:00:43.373Z,14.352112
2022-11-25T13:01:37.448Z,14.33197
2022-11-25T13:02:47.130Z,14.483032
2022-11-25T13:03:54.742Z,14.603882
2022-11-25T13:05:18.786Z,14.362183
2022-11-25T13:06:15.113Z,14.049988
2022-11-25T13:07:24.831Z,13.94928
2022-11-25T13:08:34.446Z,13.627014
2022-11-25T13:09:42.121Z,13.616943
2022-11-25T13:10:51.827Z,13.647156
2022-11-25T13:12:01.893Z,13.647156
2022-11-25T13:13:14.808Z,13.69751
2022-11-25T13:14:21.171Z,13.768005
2022-11-25T13:15:30.241Z,13.848572
2022-11-25T13:16:39.731Z,14.039917
2022-11-25T13:17:49.112Z,14.120483
2022-11-25T13:18:57.718Z,14.251404
2022-11-25T13:20:06.395Z,14.352112
2022-11-25T13:21:15.042Z,14.412537
2022-11-25T13:22:22.720Z,14.402466
2022-11-25T13:23:32.434Z,14.231262
2022-11-25T13:24:42.105Z,14.110413
2022-11-25T13:25:51.774Z,13.989563
2022-11-25T13:27:01.426Z,13.929138
2022-11-25T13:28:10.114Z,13.808289
2022-11-25T13:29:19.823Z,13.717651
2022-11-25T13:30:28.503Z,13.586731
2022-11-25T13:31:38.210Z,13.385315
2022-11-25T13:32:47.828Z,13.204041